createdAt,value
2022-07-29T00:01:43.947Z,0.77
2022-07-29T00:04:13.158Z,0.80
2022-07-29T00:06:43.099Z,0.77
2022-07-29T00:09:11.085Z,0.90
2022-07-29T00:11:39.658Z,0.70
2022-07-29T00:14:07.615Z,0.80
2022-07-29T00:16:36.328Z,0.80
2022-07-29T00:19:05.229Z,0.90
2022-07-29T00:21:35.797Z,0.60
2022-07-29T00:24:05.411Z,0.70
2022-07-29T00:26:33.589Z,0.80
2022-07-29T00:29:32.595Z,0.88
2022-07-29T00:31:49.977Z,1.10
2022-07-29T00:34:35.446Z,0.65
2022-07-29T00:37:03.733Z,0.77
2022-07-29T00:39:32.926Z,1.05
2022-07-29T00:42:00.892Z,0.77
2022-07-29T00:44:29.004Z,0.62
2022-07-29T00:46:56.985Z,0.50
2022-07-29T00:49:24.967Z,1.17
2022-07-29T00:51:53.440Z,0.60
2022-07-29T00:54:21.391Z,1.00
2022-07-29T00:56:51.401Z,0.75
2022-07-29T00:59:19.596Z,0.80
2022-07-29T01:01:47.619Z,0.80
2022-07-29T01:04:15.984Z,0.95
2022-07-29T01:06:45.484Z,0.73
2022-07-29T01:09:14.974Z,1.10
2022-07-29T01:11:43.415Z,0.80
2022-07-29T01:14:14.286Z,0.80
2022-07-29T01:16:47.722Z,1.00
2022-07-29T01:19:44.928Z,0.82
2022-07-29T01:22:27.024Z,1.05
2022-07-29T01:25:12.190Z,0.60
2022-07-29T01:27:47.047Z,1.00
2022-07-29T01:30:17.172Z,1.10
2022-07-29T01:32:51.908Z,0.90
2022-07-29T01:35:24.934Z,1.00
2022-07-29T01:37:59.400Z,0.77
2022-07-29T01:40:33.203Z,1.23
2022-07-29T01:43:10.571Z,0.95
2022-07-29T01:45:43.636Z,0.75
2022-07-29T01:48:15.231Z,1.10
2022-07-29T01:50:49.384Z,0.60
2022-07-29T01:53:25.802Z,0.70
2022-07-29T01:55:54.915Z,0.70
2022-07-29T01:58:29.743Z,0.70
2022-07-29T02:01:00.397Z,1.02
2022-07-29T02:03:30.665Z,1.08
2022-07-29T02:06:00.332Z,0.95
2022-07-29T02:08:30.184Z,1.00
2022-07-29T02:10:59.852Z,0.90
2022-07-29T02:13:30.898Z,0.85
2022-07-29T02:16:02.507Z,0.75
2022-07-29T02:18:32.589Z,0.93
2022-07-29T02:21:02.774Z,0.93
2022-07-29T02:23:33.100Z,1.20
2022-07-29T02:26:19.949Z,0.60
2022-07-29T02:28:49.361Z,1.00
2022-07-29T02:31:21.615Z,0.90
2022-07-29T02:33:50.932Z,0.73
2022-07-29T02:36:22.894Z,0.90
2022-07-29T02:38:52.497Z,1.00
2022-07-29T02:41:24.881Z,0.77
2022-07-29T02:43:57.932Z,0.88
2022-07-29T02:46:33.244Z,0.77
2022-07-29T02:49:06.298Z,1.17
2022-07-29T02:51:45.185Z,0.85
2022-07-29T02:54:22.197Z,0.77
2022-07-29T02:56:53.557Z,1.00
2022-07-29T02:59:26.927Z,1.08
2022-07-29T03:01:57.792Z,1.23
2022-07-29T03:04:29.336Z,0.82
2022-07-29T03:07:01.250Z,1.20
2022-07-29T03:09:31.593Z,1.30
2022-07-29T03:12:00.700Z,0.90
2022-07-29T03:14:29.137Z,1.05
2022-07-29T03:17:00.396Z,0.80
2022-07-29T03:19:29.075Z,0.90
2022-07-29T03:21:59.012Z,1.00
2022-07-29T03:24:32.215Z,1.10
2022-07-29T03:27:01.655Z,0.95
2022-07-29T03:29:33.433Z,1.42
2022-07-29T03:32:07.263Z,0.70
2022-07-29T03:34:38.617Z,1.15
2022-07-29T03:37:07.838Z,0.80
2022-07-29T03:39:42.451Z,0.85
2022-07-29T03:42:13.784Z,0.68
2022-07-29T03:44:46.089Z,0.80
2022-07-29T03:47:17.113Z,0.93
2022-07-29T03:49:50.086Z,0.85
2022-07-29T03:52:18.997Z,0.98
2022-07-29T03:54:47.142Z,0.88
2022-07-29T03:57:17.906Z,0.73
2022-07-29T03:59:47.126Z,1.08
2022-07-29T04:02:21.717Z,1.20
2022-07-29T04:04:51.250Z,0.93
2022-07-29T04:07:19.151Z,0.80
2022-07-29T04:09:47.098Z,1.37
2022-07-29T04:12:15.317Z,1.00
2022-07-29T04:14:43.417Z,1.85
2022-07-29T04:17:11.434Z,3.22
2022-07-29T04:19:40.942Z,3.08
2022-07-29T04:22:08.805Z,1.92
2022-07-29T04:24:36.811Z,2.80
2022-07-29T04:27:05.270Z,1.67
2022-07-29T04:29:33.248Z,1.08
2022-07-29T04:32:01.165Z,1.40
2022-07-29T04:34:29.282Z,1.10
2022-07-29T04:36:58.546Z,1.25
2022-07-29T04:39:27.229Z,1.10
2022-07-29T04:41:58.981Z,0.80
2022-07-29T04:44:28.675Z,0.88
2022-07-29T04:46:58.880Z,1.30
2022-07-29T04:49:27.452Z,1.20
2022-07-29T04:51:55.588Z,1.20
2022-07-29T04:54:24.849Z,0.93
2022-07-29T04:56:54.572Z,1.00
2022-07-29T04:59:22.444Z,0.90
2022-07-29T05:01:50.841Z,1.17
2022-07-29T05:04:19.776Z,1.20
2022-07-29T05:06:48.201Z,0.93
2022-07-29T05:09:16.458Z,1.12
2022-07-29T05:11:47.315Z,0.98
2022-07-29T05:14:15.556Z,1.37
2022-07-29T05:16:44.343Z,1.15
2022-07-29T05:19:14.558Z,1.15
2022-07-29T05:21:43.165Z,1.00
2022-07-29T05:24:11.018Z,0.68
2022-07-29T05:26:39.669Z,1.20
2022-07-29T05:29:42.885Z,1.10
2022-07-29T05:31:57.355Z,0.88
2022-07-29T05:34:26.058Z,1.00
2022-07-29T05:36:54.344Z,0.77
2022-07-29T05:39:22.635Z,0.90
2022-07-29T05:42:10.754Z,0.90
2022-07-29T05:44:40.540Z,0.80
2022-07-29T05:47:08.422Z,0.95
2022-07-29T05:49:36.386Z,0.90
2022-07-29T05:52:05.082Z,1.00
2022-07-29T05:54:33.054Z,0.90
2022-07-29T05:57:00.923Z,0.95
2022-07-29T05:59:30.640Z,0.80
2022-07-29T06:02:00.095Z,0.90
2022-07-29T06:04:28.494Z,1.20
2022-07-29T06:06:56.482Z,1.00
2022-07-29T06:09:24.791Z,0.90
2022-07-29T06:11:53.324Z,0.90
2022-07-29T06:14:21.668Z,1.30
2022-07-29T06:16:49.599Z,1.12
2022-07-29T06:19:19.149Z,0.75
2022-07-29T06:21:47.832Z,0.82
2022-07-29T06:24:17.475Z,1.00
2022-07-29T06:26:46.387Z,1.12
2022-07-29T06:29:14.260Z,0.75
2022-07-29T06:31:42.177Z,1.27
2022-07-29T06:34:10.496Z,0.98
2022-07-29T06:36:41.104Z,1.20
2022-07-29T06:39:11.695Z,0.88
2022-07-29T06:41:40.510Z,1.05
2022-07-29T06:44:10.677Z,0.90
2022-07-29T06:46:38.807Z,0.75
2022-07-29T06:49:07.117Z,0.98
2022-07-29T06:51:35.071Z,0.80
2022-07-29T06:54:06.437Z,0.70
2022-07-29T06:56:38.849Z,1.30
2022-07-29T06:59:09.653Z,0.93
2022-07-29T07:01:38.838Z,0.98
2022-07-29T07:04:07.030Z,1.05
2022-07-29T07:06:34.938Z,1.02
2022-07-29T07:09:05.191Z,1.20
2022-07-29T07:11:33.431Z,0.80
2022-07-29T07:14:03.708Z,1.20
2022-07-29T07:16:33.359Z,0.77
2022-07-29T07:19:01.772Z,0.98
2022-07-29T07:21:30.693Z,1.05
2022-07-29T07:24:00.255Z,1.10
2022-07-29T07:26:30.107Z,0.90
2022-07-29T07:28:58.787Z,1.08
2022-07-29T07:31:27.134Z,0.95
2022-07-29T07:33:55.202Z,1.10
2022-07-29T07:36:23.684Z,0.88
2022-07-29T07:38:51.964Z,0.90
2022-07-29T07:41:19.856Z,0.90
2022-07-29T07:43:49.153Z,1.45
2022-07-29T07:46:17.708Z,1.70
2022-07-29T07:48:45.727Z,1.23
2022-07-29T07:51:13.760Z,1.00
2022-07-29T07:53:42.106Z,1.27
2022-07-29T07:56:11.836Z,0.90
2022-07-29T07:58:40.859Z,1.23
2022-07-29T08:01:11.157Z,1.25
2022-07-29T08:03:39.958Z,1.37
2022-07-29T08:06:08.589Z,1.00
2022-07-29T08:08:36.517Z,1.58
2022-07-29T08:11:09.013Z,1.08
2022-07-29T08:13:38.618Z,1.10
2022-07-29T08:16:16.500Z,1.52
2022-07-29T08:18:46.163Z,1.02
2022-07-29T08:21:15.861Z,1.02
2022-07-29T08:23:57.628Z,1.02
2022-07-29T08:26:27.133Z,1.62
2022-07-29T08:28:55.026Z,1.40
2022-07-29T08:31:24.356Z,0.98
2022-07-29T08:33:52.557Z,1.40
2022-07-29T08:36:21.938Z,1.52
2022-07-29T08:38:50.477Z,1.10
2022-07-29T08:41:19.979Z,1.00
2022-07-29T08:43:48.302Z,1.30
2022-07-29T08:46:16.721Z,0.93
2022-07-29T08:48:46.587Z,1.20
2022-07-29T08:51:15.981Z,1.40
2022-07-29T08:53:45.989Z,1.15
2022-07-29T08:56:15.074Z,1.02
2022-07-29T08:58:43.551Z,1.08
2022-07-29T09:01:19.658Z,1.48
2022-07-29T09:03:51.512Z,0.80
2022-07-29T09:06:21.355Z,1.35
2022-07-29T09:08:49.672Z,1.30
2022-07-29T09:11:17.557Z,1.10
2022-07-29T09:13:46.122Z,0.98
2022-07-29T09:16:26.724Z,1.17
2022-07-29T09:19:03.795Z,1.10
2022-07-29T09:22:03.021Z,1.25
2022-07-29T09:24:41.004Z,1.20
2022-07-29T09:27:20.637Z,1.20
2022-07-29T09:29:49.028Z,1.20
2022-07-29T09:32:17.068Z,1.25
2022-07-29T09:34:46.276Z,1.27
2022-07-29T09:37:28.370Z,0.88
2022-07-29T09:39:56.639Z,1.12
2022-07-29T09:42:33.443Z,1.35
2022-07-29T09:45:01.426Z,1.00
2022-07-29T09:47:47.823Z,1.12
2022-07-29T09:50:20.747Z,1.00
2022-07-29T09:52:50.504Z,1.40
2022-07-29T09:55:19.846Z,1.20
2022-07-29T09:57:51.498Z,1.33
2022-07-29T10:00:21.470Z,1.50
2022-07-29T10:02:50.666Z,1.42
2022-07-29T10:05:22.310Z,1.50
2022-07-29T10:07:54.200Z,1.30
2022-07-29T10:10:29.467Z,1.30
2022-07-29T10:13:03.083Z,1.15
2022-07-29T10:15:40.050Z,1.33
2022-07-29T10:18:09.457Z,1.35
2022-07-29T10:20:39.731Z,1.30
2022-07-29T10:23:08.053Z,1.33
2022-07-29T10:25:36.209Z,1.65
2022-07-29T10:28:04.309Z,1.20
2022-07-29T10:30:33.096Z,1.48
2022-07-29T10:33:23.605Z,1.17
2022-07-29T10:36:06.974Z,1.55
2022-07-29T10:38:55.798Z,1.40
2022-07-29T10:41:47.542Z,1.50
2022-07-29T10:44:23.230Z,1.42
2022-07-29T10:46:53.391Z,0.90
2022-07-29T10:49:25.118Z,1.20
2022-07-29T10:52:06.712Z,1.00
2022-07-29T10:54:56.354Z,1.48
2022-07-29T10:57:53.994Z,1.25
2022-07-29T11:00:32.965Z,1.25
2022-07-29T11:03:04.668Z,1.55
2022-07-29T11:05:59.821Z,1.10
2022-07-29T11:08:29.874Z,1.30
2022-07-29T11:11:39.533Z,1.27
2022-07-29T11:14:12.262Z,1.30
2022-07-29T11:17:00.413Z,1.27
2022-07-29T11:19:30.473Z,1.20
2022-07-29T11:21:59.729Z,1.20
2022-07-29T11:24:32.037Z,0.95
2022-07-29T11:27:13.169Z,1.00
2022-07-29T11:29:50.421Z,1.30
2022-07-29T11:32:22.862Z,1.20
2022-07-29T11:35:22.291Z,1.75
2022-07-29T11:38:27.830Z,1.30
2022-07-29T11:41:23.670Z,1.05
2022-07-29T11:43:53.514Z,1.50
2022-07-29T11:46:47.732Z,1.30
2022-07-29T11:49:22.079Z,1.65
2022-07-29T11:52:02.335Z,1.50
2022-07-29T11:54:57.722Z,1.27
2022-07-29T11:57:36.525Z,1.60
2022-07-29T12:00:10.000Z,1.12
2022-07-29T12:02:43.801Z,1.10
2022-07-29T12:05:36.172Z,1.30
2022-07-29T12:08:14.536Z,1.45
2022-07-29T12:10:44.288Z,1.35
2022-07-29T12:13:14.447Z,1.15
2022-07-29T12:15:46.349Z,1.27
2022-07-29T12:18:18.669Z,1.65
2022-07-29T12:20:47.151Z,1.45
2022-07-29T12:23:17.382Z,1.58
2022-07-29T12:25:49.795Z,1.30
2022-07-29T12:28:27.401Z,1.40
2022-07-29T12:30:55.816Z,1.65
2022-07-29T12:33:28.427Z,1.37
2022-07-29T12:36:09.508Z,1.75
2022-07-29T12:38:42.486Z,1.17
2022-07-29T12:41:10.671Z,1.25
2022-07-29T12:43:39.852Z,1.02
2022-07-29T12:46:15.058Z,1.23
2022-07-29T12:48:45.475Z,1.20
2022-07-29T12:51:15.485Z,1.23
2022-07-29T12:53:43.623Z,1.40
2022-07-29T12:56:41.852Z,1.55
2022-07-29T12:59:21.199Z,1.17
2022-07-29T13:01:52.344Z,1.60
2022-07-29T13:04:28.685Z,1.60
2022-07-29T13:07:02.258Z,1.33
2022-07-29T13:09:40.630Z,1.30
2022-07-29T13:12:10.957Z,1.30
2022-07-29T13:14:43.050Z,1.12
2022-07-29T13:17:12.657Z,1.10
2022-07-29T13:19:42.685Z,1.40
2022-07-29T13:22:12.072Z,1.60
2022-07-29T13:24:51.309Z,1.20
2022-07-29T13:27:20.054Z,1.17
2022-07-29T13:29:52.209Z,1.15
2022-07-29T13:32:20.447Z,1.27
2022-07-29T13:34:57.118Z,1.00
2022-07-29T13:37:25.735Z,1.40
2022-07-29T13:39:55.090Z,0.95
2022-07-29T13:42:23.994Z,1.20
2022-07-29T13:44:53.456Z,1.40
2022-07-29T13:47:22.348Z,1.65
2022-07-29T13:50:00.199Z,1.30
2022-07-29T13:52:28.223Z,1.70
2022-07-29T13:54:56.246Z,1.50
2022-07-29T13:57:24.507Z,1.30
2022-07-29T13:59:54.554Z,1.00
2022-07-29T14:02:25.869Z,1.30
2022-07-29T14:04:54.774Z,1.25
2022-07-29T14:07:23.368Z,1.05
2022-07-29T14:09:51.484Z,1.33
2022-07-29T14:12:20.079Z,1.40
2022-07-29T14:14:48.057Z,1.42
2022-07-29T14:17:17.901Z,1.35
2022-07-29T14:19:46.149Z,1.20
2022-07-29T14:22:14.424Z,1.80
2022-07-29T14:24:43.279Z,1.10
2022-07-29T14:27:11.553Z,1.33
2022-07-29T14:29:39.685Z,1.10
2022-07-29T14:32:08.590Z,1.17
2022-07-29T14:34:39.124Z,1.60
2022-07-29T14:37:07.795Z,1.20
2022-07-29T14:39:42.351Z,1.30
2022-07-29T14:42:12.435Z,1.30
2022-07-29T14:44:42.253Z,1.37
2022-07-29T14:47:11.239Z,1.12
2022-07-29T14:49:42.816Z,1.20
2022-07-29T14:52:10.983Z,1.10
2022-07-29T14:54:39.033Z,1.80
2022-07-29T14:57:07.079Z,1.12
2022-07-29T14:59:35.294Z,1.17
2022-07-29T15:02:03.659Z,2.05
2022-07-29T15:04:32.498Z,1.25
2022-07-29T15:07:02.039Z,1.10
2022-07-29T15:09:29.972Z,1.45
2022-07-29T15:11:58.159Z,1.37
2022-07-29T15:14:26.553Z,1.05
2022-07-29T15:16:54.534Z,1.20
2022-07-29T15:19:22.500Z,1.40
2022-07-29T15:21:50.794Z,1.10
2022-07-29T15:24:20.583Z,1.10
2022-07-29T15:26:48.972Z,1.00
2022-07-29T15:29:17.272Z,1.08
2022-07-29T15:31:45.395Z,1.10
2022-07-29T15:34:13.310Z,1.40
2022-07-29T15:36:52.025Z,1.20
2022-07-29T15:39:22.761Z,1.20
2022-07-29T15:41:51.775Z,1.25
2022-07-29T15:44:20.868Z,1.10
2022-07-29T15:47:04.953Z,1.20
2022-07-29T15:49:47.688Z,2.08
2022-07-29T15:52:25.332Z,1.17
2022-07-29T15:54:57.514Z,1.10
2022-07-29T15:57:25.931Z,1.10
2022-07-29T15:59:54.378Z,1.25
2022-07-29T16:02:22.361Z,1.40
2022-07-29T16:04:50.696Z,1.20
2022-07-29T16:07:19.026Z,1.20
2022-07-29T16:09:52.495Z,1.20
2022-07-29T16:12:22.626Z,1.30
2022-07-29T16:14:51.220Z,1.20
2022-07-29T16:17:20.003Z,1.30
2022-07-29T16:19:48.246Z,1.20
2022-07-29T16:22:16.505Z,1.33
2022-07-29T16:24:44.647Z,1.40
2022-07-29T16:27:12.808Z,1.23
2022-07-29T16:29:42.019Z,1.33
2022-07-29T16:32:09.990Z,1.58
2022-07-29T16:34:38.160Z,1.58
2022-07-29T16:37:06.038Z,1.23
2022-07-29T16:39:34.014Z,1.33
2022-07-29T16:42:05.026Z,1.55
2022-07-29T16:44:34.858Z,1.40
2022-07-29T16:47:05.744Z,1.12
2022-07-29T16:49:33.604Z,1.75
2022-07-29T16:52:01.780Z,1.30
2022-07-29T16:54:29.960Z,1.50
2022-07-29T16:57:00.577Z,1.50
2022-07-29T16:59:29.478Z,1.70
2022-07-29T17:01:57.855Z,1.90
2022-07-29T17:04:28.526Z,1.77
2022-07-29T17:06:57.138Z,1.83
2022-07-29T17:09:25.513Z,1.90
2022-07-29T17:11:55.072Z,1.83
2022-07-29T17:14:25.751Z,1.50
2022-07-29T17:17:00.118Z,1.48
2022-07-29T17:19:31.962Z,1.30
2022-07-29T17:22:09.405Z,1.80
2022-07-29T17:24:40.944Z,1.67
2022-07-29T17:27:09.657Z,1.52
2022-07-29T17:29:38.707Z,1.55
2022-07-29T17:32:08.045Z,1.77
2022-07-29T17:34:38.085Z,1.35
2022-07-29T17:37:08.216Z,1.77
2022-07-29T17:39:36.489Z,1.67
2022-07-29T17:42:05.696Z,1.70
2022-07-29T17:44:36.331Z,1.67
2022-07-29T17:47:05.121Z,1.52
2022-07-29T17:49:36.312Z,1.50
2022-07-29T17:52:07.264Z,1.58
2022-07-29T17:54:35.479Z,1.65
2022-07-29T17:57:03.450Z,1.65
2022-07-29T17:59:31.764Z,1.60
2022-07-29T18:02:00.003Z,1.65
2022-07-29T18:04:29.158Z,1.42
2022-07-29T18:06:57.451Z,1.70
2022-07-29T18:09:26.922Z,1.35
2022-07-29T18:11:55.053Z,1.70
2022-07-29T18:14:22.962Z,1.35
2022-07-29T18:16:50.994Z,1.42
2022-07-29T18:19:19.210Z,1.23
2022-07-29T18:21:54.533Z,1.55
2022-07-29T18:24:25.549Z,1.55
2022-07-29T18:26:55.153Z,1.67
2022-07-29T18:29:23.212Z,1.62
2022-07-29T18:31:51.378Z,1.52
2022-07-29T18:34:19.340Z,1.60
2022-07-29T18:36:47.329Z,1.45
2022-07-29T18:39:20.884Z,1.17
2022-07-29T18:41:51.068Z,1.60
2022-07-29T18:44:22.587Z,1.42
2022-07-29T18:46:51.942Z,1.80
2022-07-29T18:49:20.679Z,1.40
2022-07-29T18:51:49.291Z,1.80
2022-07-29T18:54:18.255Z,1.70
2022-07-29T18:56:47.491Z,1.40
2022-07-29T18:59:19.565Z,1.60
2022-07-29T19:01:49.557Z,1.80
2022-07-29T19:04:18.193Z,1.50
2022-07-29T19:06:46.449Z,1.40
2022-07-29T19:09:14.820Z,1.60
2022-07-29T19:11:42.708Z,1.92
2022-07-29T19:14:10.806Z,1.83
2022-07-29T19:16:39.061Z,1.83
2022-07-29T19:19:10.044Z,1.50
2022-07-29T19:21:40.697Z,1.25
2022-07-29T19:24:13.570Z,1.62
2022-07-29T19:26:46.711Z,1.70
2022-07-29T19:29:16.064Z,1.70
2022-07-29T19:31:44.737Z,1.70
2022-07-29T19:34:14.132Z,1.42
2022-07-29T19:36:42.202Z,1.75
2022-07-29T19:39:10.396Z,1.70
2022-07-29T19:41:38.727Z,1.90
2022-07-29T19:44:06.720Z,1.70
2022-07-29T19:46:34.892Z,1.55
2022-07-29T19:49:02.855Z,1.80
2022-07-29T19:51:32.214Z,1.35
2022-07-29T19:54:00.514Z,1.62
2022-07-29T19:56:30.079Z,1.27
2022-07-29T19:58:58.616Z,1.90
2022-07-29T20:01:26.758Z,1.90
2022-07-29T20:03:54.948Z,1.37
2022-07-29T20:06:23.083Z,1.42
2022-07-29T20:08:56.708Z,2.20
2022-07-29T20:11:27.389Z,1.75
2022-07-29T20:13:55.298Z,1.83
2022-07-29T20:16:25.789Z,1.87
2022-07-29T20:18:53.958Z,1.73
2022-07-29T20:21:21.908Z,1.65
2022-07-29T20:23:49.787Z,1.98
2022-07-29T20:26:19.722Z,1.87
2022-07-29T20:28:49.483Z,1.87
2022-07-29T20:31:18.814Z,1.55
2022-07-29T20:33:46.849Z,1.67
2022-07-29T20:36:15.487Z,2.17
2022-07-29T20:38:43.707Z,1.85
2022-07-29T20:41:11.641Z,1.60
2022-07-29T20:43:40.958Z,1.70
2022-07-29T20:46:10.010Z,1.60
2022-07-29T20:48:39.632Z,2.03
2022-07-29T20:51:08.078Z,1.55
2022-07-29T20:53:38.171Z,1.60
2022-07-29T20:56:06.695Z,2.17
2022-07-29T20:58:36.201Z,1.80
2022-07-29T21:01:06.480Z,1.50
2022-07-29T21:03:34.511Z,2.17
2022-07-29T21:06:03.292Z,1.98
2022-07-29T21:08:32.061Z,1.80
2022-07-29T21:11:00.035Z,1.85
2022-07-29T21:13:28.343Z,2.10
2022-07-29T21:16:00.964Z,2.12
2022-07-29T21:18:32.619Z,2.17
2022-07-29T21:21:02.120Z,1.75
2022-07-29T21:23:30.886Z,1.92
2022-07-29T21:25:59.012Z,1.70
2022-07-29T21:28:36.874Z,1.75
2022-07-29T21:31:08.331Z,1.98
2022-07-29T21:33:38.335Z,1.87
2022-07-29T21:36:42.429Z,2.42
2022-07-29T21:38:56.651Z,1.87
2022-07-29T21:41:24.878Z,1.90
2022-07-29T21:43:53.803Z,2.50
2022-07-29T21:46:24.429Z,2.25
2022-07-29T21:48:54.024Z,2.42
2022-07-29T21:51:21.951Z,2.28
2022-07-29T21:53:50.610Z,2.00
2022-07-29T21:56:21.078Z,2.12
2022-07-29T21:58:51.743Z,2.10
2022-07-29T22:01:19.751Z,1.80
2022-07-29T22:03:47.961Z,1.98
2022-07-29T22:06:18.072Z,1.92
2022-07-29T22:08:47.884Z,1.80
2022-07-29T22:11:16.307Z,1.70
2022-07-29T22:13:44.196Z,2.28
2022-07-29T22:16:14.829Z,1.83
2022-07-29T22:18:45.021Z,1.62
2022-07-29T22:21:13.626Z,2.15
2022-07-29T22:23:43.115Z,2.05
2022-07-29T22:26:11.235Z,2.12
2022-07-29T22:28:39.117Z,1.75
2022-07-29T22:31:08.616Z,2.12
2022-07-29T22:33:37.112Z,2.28
2022-07-29T22:36:05.460Z,2.30
2022-07-29T22:38:33.838Z,2.17
2022-07-29T22:41:03.363Z,2.00
2022-07-29T22:43:31.391Z,2.30
2022-07-29T22:45:59.443Z,2.45
2022-07-29T22:48:28.118Z,2.30
2022-07-29T22:50:56.163Z,2.35
2022-07-29T22:53:24.073Z,2.62
2022-07-29T22:55:52.222Z,2.20
2022-07-29T22:58:21.619Z,2.53
2022-07-29T23:00:49.601Z,2.35
2022-07-29T23:03:17.851Z,2.30
2022-07-29T23:05:45.771Z,2.08
2022-07-29T23:08:13.698Z,2.33
2022-07-29T23:10:42.215Z,2.10
2022-07-29T23:13:10.087Z,2.37
2022-07-29T23:15:39.587Z,2.40
2022-07-29T23:18:08.113Z,2.53
2022-07-29T23:20:36.812Z,2.60
2022-07-29T23:23:04.916Z,2.55
2022-07-29T23:25:33.436Z,2.33
2022-07-29T23:28:01.648Z,2.67
2022-07-29T23:30:30.150Z,2.58
2022-07-29T23:32:59.816Z,2.33
2022-07-29T23:35:28.322Z,3.05
2022-07-29T23:37:56.221Z,2.45
2022-07-29T23:40:24.457Z,1.90
2022-07-29T23:42:52.347Z,2.80
2022-07-29T23:45:20.227Z,2.28
2022-07-29T23:47:48.349Z,2.37
2022-07-29T23:50:17.595Z,1.90
2022-07-29T23:52:45.526Z,2.22
2022-07-29T23:55:36.578Z,1.83
2022-07-29T23:58:03.030Z,2.12
